This is the latest recevied weather packets stored in our database for station/object JF2ZGN-13. If no packets are shown the sender has not sent any weather packets the latest 1 day(s).
| Time | Temp. | Humidity | Pressure | Rain* | Wind** | Luminosity | Snow |
|---|---|---|---|---|---|---|---|
| 1777993031 | 7.78° C | 77% | 913.8 hPa | 0 mm | 3.58 m/s, 198° | - | - |
| 1777992431 | 7.78° C | 79% | 913.9 hPa | 0 mm | 3.58 m/s, 180° | - | - |
| 1777991830 | 7.78° C | 79% | 913.9 hPa | 0 mm | 3.13 m/s, 180° | - | - |
| 1777991230 | 7.78° C | 80% | 914 hPa | 0 mm | 3.58 m/s, 180° | - | - |
| 1777990629 | 7.78° C | 80% | 914 hPa | 0 mm | 3.58 m/s, 212° | - | - |
| 1777990029 | 7.78° C | 79% | 913.9 hPa | 0 mm | 3.58 m/s, 200° | - | - |
| 1777989428 | 7.78° C | 77% | 913.9 hPa | 0 mm | 3.13 m/s, 203° | - | - |
| 1777988828 | 7.78° C | 77% | 913.9 hPa | 0 mm | 3.13 m/s, 229° | - | - |
| 1777988228 | 7.78° C | 76% | 914 hPa | 0 mm | 3.58 m/s, 194° | - | - |
| 1777987627 | 7.78° C | 76% | 914.1 hPa | 0 mm | 4.02 m/s, 232° | - | - |
| 1777987028 | 7.78° C | 75% | 914.1 hPa | 0 mm | 3.13 m/s, 210° | - | - |
| 1777986426 | 7.78° C | 75% | 914.2 hPa | 0 mm | 4.02 m/s, 238° | - | - |
| 1777985225 | 7.78° C | 73% | 914 hPa | 0 mm | 3.58 m/s, 217° | - | - |
| 1777984624 | 7.78° C | 72% | 913.9 hPa | 0 mm | 3.13 m/s, 225° | - | - |
| 1777984024 | 7.78° C | 68% | 914.1 hPa | 0 mm | 3.13 m/s, 205° | - | - |
| 1777983424 | 7.78° C | 62% | 914.1 hPa | 0 mm | 3.13 m/s, 235° | - | - |
| 1777982823 | 7.22° C | 57% | 914 hPa | 0 mm | 2.68 m/s, 219° | - | - |
| 1777982223 | 7.78° C | 52% | 914 hPa | 0 mm | 2.68 m/s, 210° | - | - |
| 1777981022 | 7.22° C | 57% | 913.8 hPa | 0 mm | 2.24 m/s, 238° | - | - |
| 1777980421 | 7.22° C | 58% | 914 hPa | 0 mm | 2.24 m/s, 242° | - | - |
| 1777979821 | 7.78° C | 46% | 914 hPa | 0 mm | 2.68 m/s, 210° | - | - |
| 1777979220 | 7.78° C | 33% | 913.6 hPa | 0 mm | 1.34 m/s, 225° | - | - |
| 1777978620 | 7.78° C | 31% | 913.6 hPa | 0 mm | 1.79 m/s, 271° | - | - |
| 1777978019 | 7.78° C | 25% | 913.6 hPa | 0 mm | 2.24 m/s, 242° | - | - |
| 1777977419 | 7.78° C | 25% | 913.8 hPa | 0 mm | 1.79 m/s, 249° | - | - |
* Rain since midnight (hover to see other rain measurements)
** Current wind speed in m/s (hover to see current wind gust speed)